Time;durP1;ratioP1;P1;durP2;ratioP2;P2;SDS_P1;SDS_P2;PMS_P1;PMS_P2;Temp;Humidity;BMP_temperature;BMP_pressure;BME280_temperature;BME280_humidity;BME280_pressure;Samples;Min_cycle;Max_cycle;Signal;HPM_P1;HPM_P2
2022/01/08 00:02:06;;;;;;;1.42;0.90;;;;;;;;;;5011685;28;92466;-62
2022/01/08 00:04:33;;;;;;;1.23;0.80;;;;;;;;;;5011457;28;93347;-62
2022/01/08 00:06:59;;;;;;;1.27;1.00;;;;;;;;;;5010540;28;94888;-62
2022/01/08 00:09:25;;;;;;;1.08;0.90;;;;;;;;;;5011244;28;95306;-62
2022/01/08 00:11:52;;;;;;;0.80;0.80;;;;;;;;;;5012552;28;94559;-62
2022/01/08 00:14:21;;;;;;;2.00;0.95;;;;;;;;;;5011621;28;92488;-62
2022/01/08 00:16:47;;;;;;;1.10;1.00;;;;;;;;;;5014657;28;92395;-62
2022/01/08 00:19:13;;;;;;;0.75;0.73;;;;;;;;;;5011776;28;92480;-62
2022/01/08 00:21:40;;;;;;;2.33;1.10;;;;;;;;;;5012377;28;94245;-62
2022/01/08 00:24:06;;;;;;;1.15;1.05;;;;;;;;;;5012210;28;91620;-62
2022/01/08 00:26:33;;;;;;;1.25;1.15;;;;;;;;;;5011640;28;92390;-62
2022/01/08 00:28:59;;;;;;;2.85;0.95;;;;;;;;;;5011761;28;92802;-62
2022/01/08 00:31:25;;;;;;;2.03;1.13;;;;;;;;;;5009735;28;95823;-62
2022/01/08 00:33:54;;;;;;;2.13;1.38;;;;;;;;;;5011945;28;92470;-62
2022/01/08 00:36:20;;;;;;;2.05;1.15;;;;;;;;;;5014864;28;92374;-62
2022/01/08 00:38:47;;;;;;;1.13;0.70;;;;;;;;;;5011671;28;92373;-62
2022/01/08 00:41:13;;;;;;;1.52;1.00;;;;;;;;;;5012887;28;92378;-62
2022/01/08 00:43:39;;;;;;;0.90;0.90;;;;;;;;;;5014316;28;92702;-62
2022/01/08 00:46:06;;;;;;;0.95;0.90;;;;;;;;;;5014618;28;93220;-62
2022/01/08 00:48:32;;;;;;;2.10;1.25;;;;;;;;;;5015656;28;93192;-62
2022/01/08 00:50:58;;;;;;;1.48;1.00;;;;;;;;;;5014965;28;93042;-62
2022/01/08 00:53:25;;;;;;;2.63;0.80;;;;;;;;;;5014504;28;92670;-62
2022/01/08 00:55:51;;;;;;;0.98;0.82;;;;;;;;;;5013130;28;94697;-62
2022/01/08 00:58:17;;;;;;;1.27;0.80;;;;;;;;;;5016924;28;93429;-62
2022/01/08 01:00:44;;;;;;;1.13;0.80;;;;;;;;;;5009830;28;93801;-62
2022/01/08 01:03:10;;;;;;;0.73;0.73;;;;;;;;;;5014177;28;93422;-62
2022/01/08 01:05:36;;;;;;;1.20;0.90;;;;;;;;;;5014905;28;92512;-62
2022/01/08 01:08:03;;;;;;;2.15;1.00;;;;;;;;;;5014133;28;92440;-62
2022/01/08 01:10:29;;;;;;;0.98;0.88;;;;;;;;;;5013756;28;92419;-62
2022/01/08 01:12:56;;;;;;;2.85;1.00;;;;;;;;;;5015112;28;91700;-62
2022/01/08 01:15:22;;;;;;;0.93;0.80;;;;;;;;;;5015217;28;92335;-62
2022/01/08 01:17:48;;;;;;;1.25;0.82;;;;;;;;;;5014233;28;92466;-62
2022/01/08 01:20:16;;;;;;;1.23;0.90;;;;;;;;;;5016459;28;94772;-61
2022/01/08 01:22:53;;;;;;;1.10;1.00;;;;;;;;;;5014628;28;93138;-62
2022/01/08 01:25:26;;;;;;;2.00;0.93;;;;;;;;;;5014921;28;92422;-62
2022/01/08 01:42:09;;;;;;;1.58;0.88;;;;;;;;;;5014713;28;92489;-62
2022/01/08 01:47:34;;;;;;;1.08;0.98;;;;;;;;;;5011408;28;96288;-62
2022/01/08 01:50:02;;;;;;;1.60;0.93;;;;;;;;;;5014154;28;95450;-62
2022/01/08 01:52:30;;;;;;;0.85;0.82;;;;;;;;;;5014264;28;94396;-62
2022/01/08 01:54:56;;;;;;;1.40;0.82;;;;;;;;;;5013847;28;92493;-62
2022/01/08 01:57:23;;;;;;;1.90;1.08;;;;;;;;;;5014257;28;93147;-62
2022/01/08 01:59:49;;;;;;;1.45;0.90;;;;;;;;;;5013969;28;93251;-62
2022/01/08 02:02:15;;;;;;;1.13;1.02;;;;;;;;;;5012900;28;92427;-62
2022/01/08 02:04:42;;;;;;;0.80;0.77;;;;;;;;;;5013837;28;91850;-62
2022/01/08 02:07:09;;;;;;;1.60;0.90;;;;;;;;;;5016253;28;92387;-62
2022/01/08 02:09:37;;;;;;;0.90;0.70;;;;;;;;;;5009269;28;92781;-62
2022/01/08 02:12:05;;;;;;;1.40;1.08;;;;;;;;;;5012227;28;95810;-62
2022/01/08 02:14:32;;;;;;;1.70;0.80;;;;;;;;;;5013243;28;92457;-62
2022/01/08 02:16:59;;;;;;;1.10;0.88;;;;;;;;;;5013930;28;94187;-62
2022/01/08 02:19:26;;;;;;;0.90;0.90;;;;;;;;;;5013388;28;93418;-62
2022/01/08 02:21:53;;;;;;;0.95;0.77;;;;;;;;;;5014612;28;92950;-62
2022/01/08 02:24:20;;;;;;;1.20;0.95;;;;;;;;;;5013562;28;93193;-62
2022/01/08 02:26:46;;;;;;;1.08;0.95;;;;;;;;;;5013979;28;93491;-62
2022/01/08 02:29:14;;;;;;;0.80;0.70;;;;;;;;;;5016902;28;92301;-62
2022/01/08 02:31:40;;;;;;;0.73;0.65;;;;;;;;;;5013787;28;93578;-62
2022/01/08 02:34:07;;;;;;;1.35;0.80;;;;;;;;;;5013193;28;92549;-62
2022/01/08 02:36:34;;;;;;;1.00;0.80;;;;;;;;;;5011913;28;94875;-62
2022/01/08 02:39:00;;;;;;;1.15;1.02;;;;;;;;;;5012613;28;93246;-62
2022/01/08 02:41:27;;;;;;;0.90;0.80;;;;;;;;;;5013332;28;92457;-62
2022/01/08 02:43:54;;;;;;;1.00;0.80;;;;;;;;;;5014256;28;93234;-62
2022/01/08 02:46:20;;;;;;;0.77;0.77;;;;;;;;;;5013767;28;92397;-62
2022/01/08 02:48:46;;;;;;;1.85;0.88;;;;;;;;;;5015986;28;92500;-62
2022/01/08 02:51:13;;;;;;;1.20;0.90;;;;;;;;;;5013416;28;92473;-62
2022/01/08 02:53:39;;;;;;;1.52;0.90;;;;;;;;;;5013140;28;91442;-62
2022/01/08 02:56:05;;;;;;;1.85;1.02;;;;;;;;;;5013900;28;92357;-62
2022/01/08 02:58:32;;;;;;;0.98;0.80;;;;;;;;;;5012190;28;93230;-62
2022/01/08 03:00:59;;;;;;;0.82;0.70;;;;;;;;;;5011224;28;95123;-62
2022/01/08 03:03:25;;;;;;;1.20;0.73;;;;;;;;;;5010278;28;94520;-62
2022/01/08 03:05:52;;;;;;;1.20;0.80;;;;;;;;;;5012953;28;92535;-62
2022/01/08 03:08:18;;;;;;;0.70;0.70;;;;;;;;;;5012415;28;92324;-62
2022/01/08 03:10:44;;;;;;;0.73;0.73;;;;;;;;;;5012695;28;94169;-62
2022/01/08 03:13:10;;;;;;;0.70;0.70;;;;;;;;;;5012257;28;92489;-62
2022/01/08 03:15:39;;;;;;;0.85;0.85;;;;;;;;;;5013193;28;93287;-62
2022/01/08 03:18:06;;;;;;;1.20;0.80;;;;;;;;;;5013107;28;92687;-62
2022/01/08 03:20:34;;;;;;;0.90;0.70;;;;;;;;;;5011485;28;92552;-62
2022/01/08 03:23:03;;;;;;;1.67;0.75;;;;;;;;;;5012280;28;92967;-62
2022/01/08 03:25:30;;;;;;;1.00;0.90;;;;;;;;;;5010897;28;96932;-62
2022/01/08 03:27:57;;;;;;;0.88;0.88;;;;;;;;;;5012276;28;92454;-62
2022/01/08 03:30:24;;;;;;;1.17;0.73;;;;;;;;;;5012406;28;93360;-62
2022/01/08 03:32:52;;;;;;;0.85;0.70;;;;;;;;;;5016028;28;94728;-62
2022/01/08 03:35:18;;;;;;;0.95;0.70;;;;;;;;;;5012356;28;93113;-62
2022/01/08 03:37:45;;;;;;;0.60;0.60;;;;;;;;;;5011692;28;93268;-62
2022/01/08 03:40:11;;;;;;;0.93;0.90;;;;;;;;;;5011932;28;92496;-62
2022/01/08 03:42:37;;;;;;;0.50;0.50;;;;;;;;;;5011428;28;93252;-62
2022/01/08 03:45:04;;;;;;;0.60;0.60;;;;;;;;;;5012524;28;94437;-62
2022/01/08 03:47:53;;;;;;;0.60;0.60;;;;;;;;;;5012138;28;92498;-62
2022/01/08 03:50:17;;;;;;;0.88;0.65;;;;;;;;;;5011117;28;95187;-62
2022/01/08 03:52:45;;;;;;;0.80;0.70;;;;;;;;;;5012622;27;93110;-62
2022/01/08 03:55:12;;;;;;;0.93;0.70;;;;;;;;;;5015496;28;92178;-61
2022/01/08 03:57:39;;;;;;;0.82;0.80;;;;;;;;;;5011469;28;93386;-61
2022/01/08 04:00:05;;;;;;;0.80;0.60;;;;;;;;;;5011983;28;92640;-62
2022/01/08 04:02:31;;;;;;;0.93;0.70;;;;;;;;;;5011974;28;92402;-62
2022/01/08 04:04:58;;;;;;;0.65;0.60;;;;;;;;;;5011082;28;92469;-62
2022/01/08 04:07:24;;;;;;;0.57;0.57;;;;;;;;;;5012643;28;91800;-62
2022/01/08 04:09:50;;;;;;;0.95;0.47;;;;;;;;;;5011227;28;94544;-62
2022/01/08 04:12:23;;;;;;;0.80;0.55;;;;;;;;;;5011563;28;93457;-62
2022/01/08 04:15:04;;;;;;;0.57;0.57;;;;;;;;;;5009979;28;96790;-62
2022/01/08 04:17:30;;;;;;;;;;;;;;;;;;5014821;28;96211;-62
2022/01/08 04:19:56;;;;;;;2.72;0.75;;;;;;;;;;5012153;28;118570;-62
2022/01/08 04:22:24;;;;;;;0.98;0.60;;;;;;;;;;5011656;28;93194;-62
2022/01/08 04:24:50;;;;;;;0.63;0.52;;;;;;;;;;5010676;28;92580;-62
2022/01/08 04:27:17;;;;;;;1.00;0.73;;;;;;;;;;5012127;28;92419;-62
2022/01/08 04:29:43;;;;;;;0.98;0.73;;;;;;;;;;5011377;28;93206;-62
2022/01/08 04:32:09;;;;;;;0.77;0.77;;;;;;;;;;5011985;28;92705;-62
2022/01/08 04:34:35;;;;;;;0.70;0.60;;;;;;;;;;5011741;28;92521;-62
2022/01/08 04:37:02;;;;;;;1.40;0.80;;;;;;;;;;5014285;28;93191;-62
2022/01/08 04:39:29;;;;;;;1.10;0.80;;;;;;;;;;5010212;28;95115;-62
2022/01/08 04:41:55;;;;;;;0.50;0.50;;;;;;;;;;5011512;28;94004;-62
2022/01/08 04:44:21;;;;;;;0.65;0.45;;;;;;;;;;5011714;28;92543;-62
2022/01/08 04:46:48;;;;;;;0.57;0.57;;;;;;;;;;5011686;28;92440;-62
2022/01/08 04:49:14;;;;;;;0.65;0.65;;;;;;;;;;5010552;28;92468;-62
2022/01/08 04:51:40;;;;;;;0.88;0.60;;;;;;;;;;5011861;28;92769;-61
2022/01/08 04:54:06;;;;;;;0.70;0.70;;;;;;;;;;5011861;28;92486;-62
2022/01/08 04:56:34;;;;;;;0.60;0.60;;;;;;;;;;5012128;28;93923;-62
2022/01/08 04:59:00;;;;;;;0.82;0.73;;;;;;;;;;5014356;28;94344;-62
2022/01/08 05:01:26;;;;;;;0.88;0.80;;;;;;;;;;5011289;28;92361;-62
2022/01/08 05:03:52;;;;;;;1.08;0.70;;;;;;;;;;5009652;28;95692;-62
2022/01/08 05:06:19;;;;;;;0.70;0.50;;;;;;;;;;5011558;28;92551;-62
2022/01/08 05:08:45;;;;;;;0.80;0.77;;;;;;;;;;5009683;28;92988;-62
2022/01/08 05:11:12;;;;;;;0.95;0.57;;;;;;;;;;5011417;28;93310;-62
2022/01/08 05:13:38;;;;;;;0.60;0.60;;;;;;;;;;5011420;28;92325;-62
2022/01/08 05:16:05;;;;;;;1.38;0.80;;;;;;;;;;5010533;28;92974;-62
2022/01/08 05:18:32;;;;;;;0.98;0.77;;;;;;;;;;4993789;28;92609;-62
2022/01/08 05:21:10;;;;;;;0.63;0.60;;;;;;;;;;5014707;28;91846;-62
2022/01/08 05:23:36;;;;;;;0.52;0.52;;;;;;;;;;5010821;28;94267;-62
2022/01/08 05:26:03;;;;;;;0.50;0.50;;;;;;;;;;5011109;28;92391;-62
2022/01/08 05:28:29;;;;;;;0.90;0.70;;;;;;;;;;5012725;28;94804;-62
2022/01/08 05:30:55;;;;;;;0.93;0.63;;;;;;;;;;5014418;28;93447;-62
2022/01/08 05:33:21;;;;;;;1.23;0.82;;;;;;;;;;5014029;28;92446;-62
2022/01/08 05:35:48;;;;;;;1.13;0.57;;;;;;;;;;5014656;28;93152;-62
2022/01/08 05:38:14;;;;;;;0.43;0.43;;;;;;;;;;5014409;28;93443;-62
2022/01/08 05:40:40;;;;;;;0.50;0.50;;;;;;;;;;5014212;28;93060;-62
2022/01/08 05:43:07;;;;;;;1.48;0.70;;;;;;;;;;5013053;28;93203;-62
2022/01/08 05:45:33;;;;;;;0.57;0.57;;;;;;;;;;5013236;28;91850;-61
2022/01/08 05:47:59;;;;;;;0.55;0.50;;;;;;;;;;5013608;28;92675;-62
2022/01/08 05:50:25;;;;;;;1.10;1.00;;;;;;;;;;5013794;28;93385;-62
2022/01/08 05:52:52;;;;;;;0.43;0.43;;;;;;;;;;5012604;28;94955;-62
2022/01/08 05:55:18;;;;;;;0.50;0.50;;;;;;;;;;5013855;28;94482;-62
2022/01/08 05:57:44;;;;;;;0.75;0.75;;;;;;;;;;5012831;28;92338;-62
2022/01/08 06:00:11;;;;;;;0.50;0.50;;;;;;;;;;5013311;28;93774;-62
2022/01/08 06:02:37;;;;;;;0.50;0.50;;;;;;;;;;4996791;28;92520;-62
2022/01/08 06:05:04;;;;;;;0.75;0.50;;;;;;;;;;5016975;28;93611;-62
2022/01/08 06:07:30;;;;;;;1.33;0.73;;;;;;;;;;5013034;28;92488;-62
2022/01/08 06:09:56;;;;;;;0.40;0.40;;;;;;;;;;5013607;28;92116;-62
2022/01/08 06:12:23;;;;;;;0.77;0.50;;;;;;;;;;5020086;28;92435;-62
2022/01/08 06:14:49;;;;;;;0.90;0.60;;;;;;;;;;5013535;28;92575;-62
2022/01/08 06:17:15;;;;;;;0.50;0.50;;;;;;;;;;5010893;28;95610;-61
2022/01/08 06:19:41;;;;;;;0.50;0.50;;;;;;;;;;5013990;28;92548;-62
2022/01/08 06:22:08;;;;;;;1.38;0.50;;;;;;;;;;5013715;28;92404;-62
2022/01/08 06:24:34;;;;;;;0.75;0.45;;;;;;;;;;5013604;28;92364;-62
2022/01/08 06:27:00;;;;;;;0.35;0.35;;;;;;;;;;5015716;28;92552;-62
2022/01/08 06:29:27;;;;;;;0.47;0.45;;;;;;;;;;5012177;28;93863;-62
2022/01/08 06:31:53;;;;;;;2.25;0.63;;;;;;;;;;5011830;28;92446;-62
2022/01/08 06:34:20;;;;;;;0.50;0.50;;;;;;;;;;5013705;28;92789;-61
2022/01/08 06:36:47;;;;;;;0.55;0.55;;;;;;;;;;5013501;28;93172;-62
2022/01/08 06:39:16;;;;;;;0.95;0.60;;;;;;;;;;5013770;28;92270;-62
2022/01/08 06:41:43;;;;;;;0.50;0.50;;;;;;;;;;5011952;28;94752;-62
2022/01/08 06:44:09;;;;;;;0.55;0.50;;;;;;;;;;5012080;28;93692;-62
2022/01/08 06:46:35;;;;;;;0.50;0.50;;;;;;;;;;5027729;28;92424;-62
2022/01/08 06:49:02;;;;;;;2.00;0.63;;;;;;;;;;5008418;28;92474;-62
2022/01/08 06:51:28;;;;;;;0.77;0.60;;;;;;;;;;5013435;28;92390;-62
2022/01/08 06:53:54;;;;;;;0.30;0.30;;;;;;;;;;5013390;28;92457;-62
2022/01/08 06:56:21;;;;;;;0.75;0.50;;;;;;;;;;5013325;28;92345;-62
2022/01/08 06:58:47;;;;;;;0.73;0.50;;;;;;;;;;5013485;28;91742;-62
2022/01/08 07:01:14;;;;;;;0.55;0.50;;;;;;;;;;5013263;28;92777;-62
2022/01/08 07:03:40;;;;;;;0.50;0.50;;;;;;;;;;5012551;28;92462;-62
2022/01/08 07:06:06;;;;;;;0.85;0.47;;;;;;;;;;5011613;28;95053;-62
2022/01/08 07:08:32;;;;;;;0.80;0.65;;;;;;;;;;5016227;28;96588;-62
2022/01/08 07:10:59;;;;;;;0.50;0.50;;;;;;;;;;4993394;28;93144;-62
2022/01/08 07:13:25;;;;;;;1.05;0.70;;;;;;;;;;4992152;28;92881;-62
2022/01/08 07:15:51;;;;;;;1.15;0.50;;;;;;;;;;5006629;28;93581;-62
2022/01/08 07:18:18;;;;;;;0.68;0.40;;;;;;;;;;5013182;28;92461;-62
2022/01/08 07:20:44;;;;;;;1.00;0.50;;;;;;;;;;5012737;28;93042;-62
2022/01/08 07:23:10;;;;;;;0.47;0.47;;;;;;;;;;5013093;28;91732;-62
2022/01/08 07:25:36;;;;;;;0.50;0.50;;;;;;;;;;5012684;28;92418;-62
2022/01/08 07:28:03;;;;;;;1.45;0.60;;;;;;;;;;5011391;28;92415;-62
2022/01/08 07:30:29;;;;;;;0.50;0.50;;;;;;;;;;5014372;28;94743;-62
2022/01/08 07:32:55;;;;;;;1.05;0.40;;;;;;;;;;5012388;28;95507;-62
2022/01/08 07:35:23;;;;;;;1.13;0.40;;;;;;;;;;5012777;28;94109;-62
2022/01/08 07:37:50;;;;;;;0.40;0.40;;;;;;;;;;5012641;28;92386;-61
2022/01/08 07:40:17;;;;;;;2.10;0.40;;;;;;;;;;5012522;28;93143;-62
2022/01/08 07:42:44;;;;;;;0.40;0.40;;;;;;;;;;4995254;28;93340;-62
2022/01/08 07:45:14;;;;;;;0.80;0.57;;;;;;;;;;5012316;28;92477;-62
2022/01/08 07:47:40;;;;;;;0.50;0.50;;;;;;;;;;5012996;28;92759;-62
2022/01/08 07:50:06;;;;;;;0.50;0.40;;;;;;;;;;5011862;28;92399;-62
2022/01/08 07:52:33;;;;;;;0.50;0.50;;;;;;;;;;5015622;28;92441;-62
2022/01/08 07:54:59;;;;;;;0.50;0.40;;;;;;;;;;5010669;28;94788;-62
2022/01/08 07:57:26;;;;;;;0.65;0.50;;;;;;;;;;5011182;28;92614;-62
2022/01/08 07:59:52;;;;;;;0.50;0.40;;;;;;;;;;5012741;28;94257;-62
2022/01/08 08:02:20;;;;;;;0.50;0.50;;;;;;;;;;5010925;28;93396;-62
2022/01/08 08:04:46;;;;;;;0.93;0.43;;;;;;;;;;5012184;28;92368;-62
2022/01/08 08:07:12;;;;;;;0.73;0.50;;;;;;;;;;5011554;28;93144;-62
2022/01/08 08:09:39;;;;;;;1.35;0.75;;;;;;;;;;5002415;28;93048;-62
2022/01/08 08:12:06;;;;;;;0.75;0.47;;;;;;;;;;5008480;28;91680;-62
2022/01/08 08:14:32;;;;;;;0.52;0.30;;;;;;;;;;5014750;28;92728;-62
2022/01/08 08:16:58;;;;;;;0.45;0.45;;;;;;;;;;5010910;28;92301;-62
2022/01/08 08:19:24;;;;;;;1.42;0.70;;;;;;;;;;5009106;28;94697;-62
2022/01/08 08:21:51;;;;;;;0.95;0.50;;;;;;;;;;5012556;28;92626;-62
2022/01/08 08:24:20;;;;;;;0.60;0.50;;;;;;;;;;5011995;28;92439;-62
2022/01/08 08:26:46;;;;;;;0.90;0.50;;;;;;;;;;5011570;28;94274;-62
2022/01/08 08:29:12;;;;;;;0.60;0.50;;;;;;;;;;5011577;28;92316;-62
2022/01/08 08:31:38;;;;;;;0.60;0.55;;;;;;;;;;5011781;28;92401;-62
2022/01/08 08:34:07;;;;;;;0.82;0.52;;;;;;;;;;5011921;28;94117;-62
2022/01/08 08:36:34;;;;;;;0.80;0.50;;;;;;;;;;5015083;28;92409;-62
2022/01/08 08:39:00;;;;;;;0.35;0.35;;;;;;;;;;5011438;28;92507;-61
2022/01/08 08:41:26;;;;;;;0.30;0.30;;;;;;;;;;5010961;28;93564;-62
2022/01/08 08:43:52;;;;;;;0.43;0.20;;;;;;;;;;5010496;28;94992;-62
2022/01/08 08:46:19;;;;;;;0.50;0.50;;;;;;;;;;5012127;28;95777;-62
2022/01/08 08:48:45;;;;;;;0.40;0.40;;;;;;;;;;5011860;28;93456;-62
2022/01/08 08:51:12;;;;;;;0.60;0.50;;;;;;;;;;5011959;28;92878;-62
2022/01/08 08:53:38;;;;;;;0.40;0.40;;;;;;;;;;5009466;28;92522;-62
2022/01/08 08:56:04;;;;;;;0.90;0.60;;;;;;;;;;5012915;28;92445;-62
2022/01/08 08:58:31;;;;;;;1.67;0.60;;;;;;;;;;5011319;28;94765;-61
2022/01/08 09:00:57;;;;;;;0.65;0.63;;;;;;;;;;5011936;28;92378;-61
2022/01/08 09:03:23;;;;;;;0.50;0.50;;;;;;;;;;5010813;28;92325;-62
2022/01/08 09:05:50;;;;;;;8.82;0.70;;;;;;;;;;5015114;28;92541;-62
2022/01/08 09:08:16;;;;;;;0.63;0.63;;;;;;;;;;5011327;28;95180;-62
2022/01/08 09:10:42;;;;;;;1.15;0.52;;;;;;;;;;5013988;28;92437;-62
2022/01/08 09:13:08;;;;;;;1.77;0.60;;;;;;;;;;5019022;28;94156;-62
2022/01/08 09:15:40;;;;;;;1.27;0.68;;;;;;;;;;5014486;28;93466;-62
2022/01/08 09:18:07;;;;;;;0.80;0.57;;;;;;;;;;5018164;28;92379;-62
2022/01/08 09:20:33;;;;;;;1.33;0.50;;;;;;;;;;5013661;28;92391;-62
2022/01/08 09:23:00;;;;;;;0.73;0.65;;;;;;;;;;5014049;28;92676;-62
2022/01/08 09:25:26;;;;;;;0.82;0.60;;;;;;;;;;5015396;28;91866;-62
2022/01/08 09:27:53;;;;;;;3.50;0.73;;;;;;;;;;5014640;28;92559;-62
2022/01/08 09:30:19;;;;;;;2.13;0.60;;;;;;;;;;5014946;28;92438;-62
2022/01/08 09:32:45;;;;;;;0.50;0.32;;;;;;;;;;5012762;28;94857;-62
2022/01/08 09:35:13;;;;;;;1.75;0.73;;;;;;;;;;5014310;28;93554;-62
2022/01/08 09:37:40;;;;;;;0.50;0.50;;;;;;;;;;5014285;28;92481;-62
2022/01/08 09:40:07;;;;;;;1.10;0.60;;;;;;;;;;5017191;28;92501;-62
2022/01/08 09:42:33;;;;;;;3.75;0.90;;;;;;;;;;5014491;28;92466;-62
2022/01/08 09:45:00;;;;;;;0.73;0.73;;;;;;;;;;5012203;28;92450;-62
2022/01/08 09:47:27;;;;;;;0.70;0.60;;;;;;;;;;5013194;28;92722;-62
2022/01/08 09:49:53;;;;;;;0.93;0.52;;;;;;;;;;5015039;28;91677;-62
2022/01/08 09:52:19;;;;;;;4.07;0.75;;;;;;;;;;5014393;28;92574;-62
2022/01/08 09:54:45;;;;;;;0.90;0.70;;;;;;;;;;5014147;28;94384;-62
2022/01/08 09:57:12;;;;;;;0.70;0.50;;;;;;;;;;5012476;28;95838;-62
2022/01/08 09:59:38;;;;;;;1.52;0.70;;;;;;;;;;5013949;28;96519;-62
2022/01/08 10:02:04;;;;;;;1.13;0.70;;;;;;;;;;5016300;28;93259;-62
2022/01/08 10:04:34;;;;;;;3.97;0.73;;;;;;;;;;5013628;28;92387;-62
2022/01/08 10:07:18;;;;;;;0.93;0.70;;;;;;;;;;5013381;28;94246;-62
2022/01/08 10:10:04;;;;;;;2.55;0.70;;;;;;;;;;5004323;28;92485;-62
2022/01/08 10:12:39;;;;;;;1.88;0.85;;;;;;;;;;5004336;28;92411;-62
2022/01/08 10:17:50;;;;;;;2.03;0.80;;;;;;;;;;5014306;28;92528;-62
2022/01/08 10:20:26;;;;;;;1.05;0.60;;;;;;;;;;5013916;28;93119;-62
2022/01/08 10:22:59;;;;;;;1.38;0.70;;;;;;;;;;5014455;28;95823;-62
2022/01/08 10:25:26;;;;;;;2.83;0.80;;;;;;;;;;5017180;28;92504;-62
2022/01/08 10:27:52;;;;;;;3.05;0.65;;;;;;;;;;5013560;28;92412;-62
2022/01/08 10:30:27;;;;;;;1.92;0.85;;;;;;;;;;5013291;28;92587;-62
2022/01/08 10:32:58;;;;;;;0.55;0.50;;;;;;;;;;5014422;28;93044;-62
2022/01/08 10:35:43;;;;;;;2.83;0.80;;;;;;;;;;5012772;28;93394;-62
2022/01/08 10:38:09;;;;;;;1.20;0.85;;;;;;;;;;5012858;28;92309;-62
2022/01/08 10:40:35;;;;;;;1.42;0.80;;;;;;;;;;5014167;28;94292;-62
2022/01/08 10:43:01;;;;;;;1.50;0.70;;;;;;;;;;5009129;28;92675;-60
2022/01/08 10:45:34;;;;;;;0.80;0.60;;;;;;;;;;5012501;28;92942;-62
2022/01/08 10:48:03;;;;;;;2.28;0.77;;;;;;;;;;5014833;28;94735;-62
2022/01/08 10:50:30;;;;;;;1.52;0.90;;;;;;;;;;5013050;28;92519;-61
2022/01/08 10:52:57;;;;;;;1.83;0.73;;;;;;;;;;5013404;28;92940;-62
2022/01/08 10:55:30;;;;;;;0.85;0.60;;;;;;;;;;5012406;28;93547;-62
2022/01/08 10:57:57;;;;;;;0.95;0.60;;;;;;;;;;5005862;28;92711;-62
2022/01/08 11:00:30;;;;;;;1.00;0.80;;;;;;;;;;4998894;28;92990;-61
2022/01/08 11:02:57;;;;;;;0.85;0.63;;;;;;;;;;5013502;28;93295;-61
2022/01/08 11:05:23;;;;;;;0.70;0.70;;;;;;;;;;5012617;28;91990;-61
2022/01/08 11:07:49;;;;;;;0.95;0.70;;;;;;;;;;5016548;28;92357;-62
2022/01/08 11:10:18;;;;;;;0.50;0.50;;;;;;;;;;5012418;28;92422;-61
2022/01/08 11:12:46;;;;;;;0.63;0.60;;;;;;;;;;5011411;28;94775;-62
2022/01/08 11:17:42;;;;;;;2.15;0.70;;;;;;;;;;5013357;28;92399;-61
2022/01/08 11:20:14;;;;;;;1.42;0.80;;;;;;;;;;5012475;28;93199;-62
2022/01/08 11:22:43;;;;;;;1.83;0.73;;;;;;;;;;5012602;28;92568;-62
2022/01/08 11:25:10;;;;;;;2.15;0.65;;;;;;;;;;5011799;28;92474;-62
2022/01/08 11:27:55;;;;;;;2.42;0.88;;;;;;;;;;5012798;28;93700;-62
2022/01/08 11:30:23;;;;;;;1.27;0.70;;;;;;;;;;5016775;28;92678;-62
2022/01/08 11:32:51;;;;;;;1.23;0.80;;;;;;;;;;5012471;28;92872;-62
2022/01/08 11:35:35;;;;;;;0.65;0.65;;;;;;;;;;5010919;28;92656;-62
2022/01/08 11:38:04;;;;;;;1.42;0.75;;;;;;;;;;5010775;28;95031;-62
2022/01/08 11:40:31;;;;;;;0.82;0.70;;;;;;;;;;5011632;28;94042;-62
2022/01/08 11:42:59;;;;;;;1.38;0.70;;;;;;;;;;5012325;28;93469;-62
2022/01/08 11:45:29;;;;;;;0.75;0.70;;;;;;;;;;5011823;28;92376;-62
2022/01/08 11:47:57;;;;;;;0.93;0.70;;;;;;;;;;5012199;28;92489;-62
2022/01/08 11:50:26;;;;;;;0.82;0.70;;;;;;;;;;5012511;28;93415;-62
2022/01/08 11:53:11;;;;;;;0.65;0.60;;;;;;;;;;5015911;28;92437;-62
2022/01/08 11:55:37;;;;;;;0.88;0.68;;;;;;;;;;5012312;28;91583;-62
2022/01/08 11:58:13;;;;;;;1.95;0.60;;;;;;;;;;5011854;28;92513;-62
2022/01/08 12:00:48;;;;;;;1.48;0.60;;;;;;;;;;5012122;28;92421;-62
2022/01/08 12:03:21;;;;;;;0.90;0.70;;;;;;;;;;5008886;28;95953;-61
2022/01/08 12:05:49;;;;;;;0.82;0.70;;;;;;;;;;5012251;28;92395;-61
2022/01/08 12:08:17;;;;;;;2.00;0.65;;;;;;;;;;5011889;28;93200;-62
2022/01/08 12:10:56;;;;;;;0.95;0.80;;;;;;;;;;5011475;28;92342;-61
2022/01/08 12:13:41;;;;;;;0.60;0.60;;;;;;;;;;5011972;28;92426;-62
2022/01/08 12:16:27;;;;;;;1.17;0.60;;;;;;;;;;5013227;28;92970;-62
2022/01/08 12:18:53;;;;;;;1.45;0.90;;;;;;;;;;5011828;28;92381;-62
2022/01/08 12:21:40;;;;;;;1.67;0.80;;;;;;;;;;5013159;28;94141;-62
2022/01/08 12:24:25;;;;;;;0.75;0.63;;;;;;;;;;5010921;28;94278;-62
2022/01/08 12:26:58;;;;;;;0.63;0.63;;;;;;;;;;5011310;28;92504;-62
2022/01/08 12:29:38;;;;;;;2.08;0.88;;;;;;;;;;5009105;28;94724;-62
2022/01/08 12:32:27;;;;;;;1.35;0.90;;;;;;;;;;4991117;28;92593;-62
2022/01/08 12:35:01;;;;;;;1.33;0.95;;;;;;;;;;4999586;28;92850;-62
2022/01/08 12:37:35;;;;;;;0.80;0.70;;;;;;;;;;5018444;28;93168;-62
2022/01/08 12:40:02;;;;;;;0.70;0.65;;;;;;;;;;5020700;28;93476;-62
2022/01/08 12:42:29;;;;;;;0.60;0.60;;;;;;;;;;5019998;28;92450;-62
2022/01/08 12:45:02;;;;;;;1.00;0.90;;;;;;;;;;5033787;27;93661;-62
2022/01/08 12:47:47;;;;;;;2.67;1.65;;;;;;;;;;5017596;28;91685;-62
2022/01/08 12:50:32;;;;;;;15.00;1.40;;;;;;;;;;5018428;28;93018;-62
2022/01/08 12:53:05;;;;;;;1.75;1.30;;;;;;;;;;5017196;28;92552;-62
2022/01/08 12:55:32;;;;;;;8.00;1.55;;;;;;;;;;5015100;28;94828;-62
2022/01/08 12:57:58;;;;;;;4.05;1.33;;;;;;;;;;5008874;28;95609;-62
2022/01/08 13:00:25;;;;;;;3.08;1.30;;;;;;;;;;5008627;28;93110;-61
2022/01/08 13:02:51;;;;;;;3.53;1.20;;;;;;;;;;5017497;28;92417;-61
2022/01/08 13:05:19;;;;;;;5.55;1.40;;;;;;;;;;5016202;28;93644;-61
2022/01/08 13:07:51;;;;;;;4.68;1.27;;;;;;;;;;5017951;28;92323;-61
2022/01/08 13:10:18;;;;;;;3.35;1.05;;;;;;;;;;5018406;28;92472;-61
2022/01/08 13:13:03;;;;;;;2.85;1.35;;;;;;;;;;5022913;27;91809;-61
2022/01/08 13:15:30;;;;;;;3.58;1.27;;;;;;;;;;5014941;28;93716;-62
2022/01/08 13:18:32;;;;;;;4.28;1.27;;;;;;;;;;5016761;28;92913;-61
2022/01/08 13:21:02;;;;;;;2.45;1.02;;;;;;;;;;4971862;28;95860;-62
2022/01/08 13:23:28;;;;;;;4.85;1.15;;;;;;;;;;4978252;28;92612;-62
2022/01/08 13:25:55;;;;;;;5.28;1.15;;;;;;;;;;4975042;28;92626;-62
2022/01/08 13:28:22;;;;;;;3.17;0.95;;;;;;;;;;4975398;28;92563;-62
2022/01/08 13:30:49;;;;;;;3.70;0.88;;;;;;;;;;4975082;28;92930;-62
2022/01/08 13:33:26;;;;;;;1.15;0.98;;;;;;;;;;4975456;28;92395;-62
2022/01/08 13:36:09;;;;;;;1.40;1.00;;;;;;;;;;4959370;28;92392;-62
2022/01/08 13:38:37;;;;;;;4.65;1.00;;;;;;;;;;4975151;28;92870;-62
2022/01/08 13:41:07;;;;;;;1.08;0.90;;;;;;;;;;4975003;28;92626;-61
2022/01/08 13:43:52;;;;;;;3.83;0.93;;;;;;;;;;4975412;28;92531;-62
2022/01/08 13:46:18;;;;;;;2.67;0.95;;;;;;;;;;4975712;28;94862;-62
2022/01/08 13:48:45;;;;;;;0.98;0.93;;;;;;;;;;4971141;28;92518;-62
2022/01/08 13:51:11;;;;;;;1.67;1.08;;;;;;;;;;4970904;28;92783;-62
2022/01/08 13:53:38;;;;;;;4.38;1.27;;;;;;;;;;4971802;28;93131;-62
2022/01/08 13:56:04;;;;;;;4.88;1.35;;;;;;;;;;5011021;28;92437;-64
2022/01/08 13:58:30;;;;;;;3.80;1.55;;;;;;;;;;5013065;28;92926;-63
2022/01/08 14:01:01;;;;;;;13.30;1.15;;;;;;;;;;5013884;28;93468;-63
2022/01/08 14:03:29;;;;;;;1.08;0.82;;;;;;;;;;5014534;28;92000;-63
2022/01/08 14:05:59;;;;;;;1.65;1.00;;;;;;;;;;5016599;27;92707;-63
2022/01/08 14:08:26;;;;;;;2.33;1.00;;;;;;;;;;5015923;28;92882;-63
2022/01/08 14:10:56;;;;;;;6.38;1.27;;;;;;;;;;5012113;28;94734;-63
2022/01/08 14:13:26;;;;;;;;;;;;;;;;;;5002679;28;92915;-63
2022/01/08 14:15:59;;;;;;;2.65;0.98;;;;;;;;;;5015067;28;117748;-63
2022/01/08 14:18:28;;;;;;;2.58;0.93;;;;;;;;;;5014121;28;92438;-63
2022/01/08 14:20:57;;;;;;;5.25;1.08;;;;;;;;;;5021120;28;92418;-63
2022/01/08 14:23:27;;;;;;;3.22;1.30;;;;;;;;;;5013714;28;92564;-63
2022/01/08 14:25:54;;;;;;;2.65;0.90;;;;;;;;;;5014248;28;92305;-63
2022/01/08 14:28:22;;;;;;;2.05;0.90;;;;;;;;;;5018174;28;92766;-63
2022/01/08 14:30:49;;;;;;;2.25;1.00;;;;;;;;;;5016847;28;92388;-63
2022/01/08 14:33:16;;;;;;;2.05;0.95;;;;;;;;;;5012955;28;93296;-63
2022/01/08 14:35:42;;;;;;;2.25;1.10;;;;;;;;;;5011571;28;94908;-63
2022/01/08 14:38:09;;;;;;;2.30;1.02;;;;;;;;;;5013777;28;96489;-63
2022/01/08 14:40:35;;;;;;;1.15;0.90;;;;;;;;;;5013086;28;92681;-63
2022/01/08 14:43:06;;;;;;;4.10;0.90;;;;;;;;;;5014247;28;92572;-63
2022/01/08 14:45:32;;;;;;;;;;;;;;;;;;4997598;28;92404;-63
2022/01/08 14:47:58;;;;;;;2.35;1.00;;;;;;;;;;5025918;28;124333;-63
2022/01/08 14:50:26;;;;;;;1.83;1.00;;;;;;;;;;5013857;28;92568;-62
2022/01/08 14:52:53;;;;;;;1.77;0.95;;;;;;;;;;5017246;28;93918;-63
2022/01/08 14:55:21;;;;;;;1.95;0.90;;;;;;;;;;5020889;28;92464;-63
2022/01/08 14:57:47;;;;;;;2.03;0.98;;;;;;;;;;5017633;27;92812;-63
2022/01/08 15:00:15;;;;;;;2.35;0.82;;;;;;;;;;5009766;28;94908;-62
2022/01/08 15:02:42;;;;;;;1.30;0.85;;;;;;;;;;5012109;28;94064;-63
2022/01/08 15:05:10;;;;;;;1.10;0.75;;;;;;;;;;5008667;28;93481;-63
2022/01/08 15:07:36;;;;;;;1.45;0.80;;;;;;;;;;5032251;27;93186;-64
2022/01/08 15:10:04;;;;;;;1.20;0.88;;;;;;;;;;5033818;27;92654;-64
2022/01/08 15:12:30;;;;;;;2.60;0.90;;;;;;;;;;5019128;27;92343;-64